sensor_id;sensor_type;location;lat;lon;timestamp;pressure;altitude;pressure_sealevel;temperature
85122;BMP280;75480;52.260;20.916;2024-02-16T00:01:29;100905.13;;;9.45
85122;BMP280;75480;52.260;20.916;2024-02-16T00:02:59;100910.63;;;9.45
85122;BMP280;75480;52.260;20.916;2024-02-16T00:04:30;100916.16;;;9.45
85122;BMP280;75480;52.260;20.916;2024-02-16T00:06:01;100910.63;;;9.45
85122;BMP280;75480;52.260;20.916;2024-02-16T00:07:31;100918.59;;;9.43
85122;BMP280;75480;52.260;20.916;2024-02-16T00:09:02;100905.75;;;9.40
85122;BMP280;75480;52.260;20.916;2024-02-16T00:10:33;100912.47;;;9.39
85122;BMP280;75480;52.260;20.916;2024-02-16T00:12:04;100905.44;;;9.29
85122;BMP280;75480;52.260;20.916;2024-02-16T00:13:35;100903.31;;;9.33
85122;BMP280;75480;52.260;20.916;2024-02-16T00:15:06;100910.63;;;9.36
85122;BMP280;75480;52.260;20.916;2024-02-16T00:16:36;100915.69;;;9.37
85122;BMP280;75480;52.260;20.916;2024-02-16T00:18:07;100907.13;;;9.35
85122;BMP280;75480;52.260;20.916;2024-02-16T00:19:38;100912.94;;;9.37
85122;BMP280;75480;52.260;20.916;2024-02-16T00:21:09;100908.50;;;9.40
85122;BMP280;75480;52.260;20.916;2024-02-16T00:22:40;100910.03;;;9.41
85122;BMP280;75480;52.260;20.916;2024-02-16T00:24:11;100911.56;;;9.33
85122;BMP280;75480;52.260;20.916;2024-02-16T00:25:41;100911.09;;;9.34
85122;BMP280;75480;52.260;20.916;2024-02-16T00:27:12;100919.34;;;9.34
85122;BMP280;75480;52.260;20.916;2024-02-16T00:28:44;100912.16;;;9.28
85122;BMP280;75480;52.260;20.916;2024-02-16T00:30:14;100909.72;;;9.30
85122;BMP280;75480;52.260;20.916;2024-02-16T00:31:48;100918.75;;;9.21
85122;BMP280;75480;52.260;20.916;2024-02-16T00:33:18;100903.00;;;9.22
85122;BMP280;75480;52.260;20.916;2024-02-16T00:34:49;100908.03;;;9.23
85122;BMP280;75480;52.260;20.916;2024-02-16T00:36:22;100907.28;;;9.14
85122;BMP280;75480;52.260;20.916;2024-02-16T00:37:53;100903.16;;;9.18
85122;BMP280;75480;52.260;20.916;2024-02-16T00:39:24;100898.88;;;9.17
85122;BMP280;75480;52.260;20.916;2024-02-16T00:40:55;100903.44;;;9.20
85122;BMP280;75480;52.260;20.916;2024-02-16T00:42:26;100893.06;;;9.15
85122;BMP280;75480;52.260;20.916;2024-02-16T00:43:58;100897.66;;;9.18
85122;BMP280;75480;52.260;20.916;2024-02-16T00:45:28;100893.97;;;9.12
85122;BMP280;75480;52.260;20.916;2024-02-16T00:46:59;100906.19;;;9.11
85122;BMP280;75480;52.260;20.916;2024-02-16T00:48:29;100888.16;;;9.10
85122;BMP280;75480;52.260;20.916;2024-02-16T00:50:00;100897.94;;;9.11
85122;BMP280;75480;52.260;20.916;2024-02-16T00:51:31;100891.69;;;9.10
85122;BMP280;75480;52.260;20.916;2024-02-16T00:53:02;100892.44;;;9.11
85122;BMP280;75480;52.260;20.916;2024-02-16T00:54:33;100891.06;;;9.06
85122;BMP280;75480;52.260;20.916;2024-02-16T00:56:03;100890.16;;;9.09
85122;BMP280;75480;52.260;20.916;2024-02-16T00:57:34;100898.72;;;9.12
85122;BMP280;75480;52.260;20.916;2024-02-16T00:59:05;100887.09;;;9.07
85122;BMP280;75480;52.260;20.916;2024-02-16T01:00:36;100887.84;;;9.08
85122;BMP280;75480;52.260;20.916;2024-02-16T01:02:07;100882.34;;;8.99
85122;BMP280;75480;52.260;20.916;2024-02-16T01:03:38;100884.63;;;8.91
85122;BMP280;75480;52.260;20.916;2024-02-16T01:05:09;100883.09;;;8.90
85122;BMP280;75480;52.260;20.916;2024-02-16T01:06:41;100877.59;;;8.81
85122;BMP280;75480;52.260;20.916;2024-02-16T01:08:11;100885.84;;;8.81
85122;BMP280;75480;52.260;20.916;2024-02-16T01:09:42;100874.66;;;8.85
85122;BMP280;75480;52.260;20.916;2024-02-16T01:11:12;100873.91;;;8.84
85122;BMP280;75480;52.260;20.916;2024-02-16T01:12:43;100871.78;;;8.79
85122;BMP280;75480;52.260;20.916;2024-02-16T01:14:14;100875.75;;;8.78
85122;BMP280;75480;52.260;20.916;2024-02-16T01:15:45;100877.13;;;8.83
85122;BMP280;75480;52.260;20.916;2024-02-16T01:17:16;100872.84;;;8.82
85122;BMP280;75480;52.260;20.916;2024-02-16T01:18:47;100878.50;;;8.78
85122;BMP280;75480;52.260;20.916;2024-02-16T01:20:17;100868.56;;;8.71
85122;BMP280;75480;52.260;20.916;2024-02-16T01:21:48;100870.84;;;8.73
85122;BMP280;75480;52.260;20.916;2024-02-16T01:23:23;100867.03;;;8.61
85122;BMP280;75480;52.260;20.916;2024-02-16T01:24:53;100865.78;;;8.62
85122;BMP280;75480;52.260;20.916;2024-02-16T01:26:24;100863.03;;;8.62
85122;BMP280;75480;52.260;20.916;2024-02-16T01:27:55;100863.19;;;8.59
85122;BMP280;75480;52.260;20.916;2024-02-16T01:29:25;100863.19;;;8.59
85122;BMP280;75480;52.260;20.916;2024-02-16T01:30:57;100867.78;;;8.62
85122;BMP280;75480;52.260;20.916;2024-02-16T01:32:27;100867.28;;;8.54
85122;BMP280;75480;52.260;20.916;2024-02-16T01:33:58;100863.59;;;8.48
85122;BMP280;75480;52.260;20.916;2024-02-16T01:35:29;100872.59;;;8.49
85122;BMP280;75480;52.260;20.916;2024-02-16T01:36:59;100864.03;;;8.46
85122;BMP280;75480;52.260;20.916;2024-02-16T01:38:30;100856.25;;;8.45
85122;BMP280;75480;52.260;20.916;2024-02-16T01:40:01;100867.72;;;8.43
85122;BMP280;75480;52.260;20.916;2024-02-16T01:41:33;100858.84;;;8.39
85122;BMP280;75480;52.260;20.916;2024-02-16T01:43:04;100857.19;;;8.42
85122;BMP280;75480;52.260;20.916;2024-02-16T01:44:35;100858.72;;;8.43
85122;BMP280;75480;52.260;20.916;2024-02-16T01:46:06;100862.34;;;8.40
85122;BMP280;75480;52.260;20.916;2024-02-16T01:47:37;100851.06;;;8.38
85122;BMP280;75480;52.260;20.916;2024-02-16T01:49:10;100856.22;;;8.36
85122;BMP280;75480;52.260;20.916;2024-02-16T01:50:43;100862.47;;;8.27
85122;BMP280;75480;52.260;20.916;2024-02-16T01:52:14;100853.59;;;8.23
85122;BMP280;75480;52.260;20.916;2024-02-16T01:53:45;100855.56;;;8.23
85122;BMP280;75480;52.260;20.916;2024-02-16T01:55:16;100860.16;;;8.26
85122;BMP280;75480;52.260;20.916;2024-02-16T01:56:47;100856.78;;;8.22
85122;BMP280;75480;52.260;20.916;2024-02-16T01:58:18;100860.38;;;8.31
85122;BMP280;75480;52.260;20.916;2024-02-16T01:59:48;100864.00;;;8.28
85122;BMP280;75480;52.260;20.916;2024-02-16T02:01:19;100857.41;;;8.26
85122;BMP280;75480;52.260;20.916;2024-02-16T02:02:50;100856.81;;;8.31
85122;BMP280;75480;52.260;20.916;2024-02-16T02:04:20;100854.88;;;8.31
85122;BMP280;75480;52.260;20.916;2024-02-16T02:05:51;100856.41;;;8.32
85122;BMP280;75480;52.260;20.916;2024-02-16T02:07:26;100857.16;;;8.33
85122;BMP280;75480;52.260;20.916;2024-02-16T02:08:59;100849.78;;;8.21
85122;BMP280;75480;52.260;20.916;2024-02-16T02:10:30;100854.50;;;8.20
85122;BMP280;75480;52.260;20.916;2024-02-16T02:12:00;100865.75;;;8.13
85122;BMP280;75480;52.260;20.916;2024-02-16T02:13:31;100865.91;;;8.09
85122;BMP280;75480;52.260;20.916;2024-02-16T02:15:02;100856.44;;;8.10
85122;BMP280;75480;52.260;20.916;2024-02-16T02:16:33;100867.84;;;8.00
85122;BMP280;75480;52.260;20.916;2024-02-16T02:18:04;100866.13;;;8.02
85122;BMP280;75480;52.260;20.916;2024-02-16T02:19:35;100858.09;;;8.08
85122;BMP280;75480;52.260;20.916;2024-02-16T02:21:06;100856.31;;;8.14
85122;BMP280;75480;52.260;20.916;2024-02-16T02:22:39;100856.13;;;8.08
85122;BMP280;75480;52.260;20.916;2024-02-16T02:24:09;100851.09;;;8.07
85122;BMP280;75480;52.260;20.916;2024-02-16T02:25:41;100852.03;;;8.13
85122;BMP280;75480;52.260;20.916;2024-02-16T02:27:13;100858.91;;;8.18
85122;BMP280;75480;52.260;20.916;2024-02-16T02:28:43;100854.84;;;8.22
85122;BMP280;75480;52.260;20.916;2024-02-16T02:30:14;100853.41;;;8.18
85122;BMP280;75480;52.260;20.916;2024-02-16T02:31:47;100848.50;;;8.12
85122;BMP280;75480;52.260;20.916;2024-02-16T02:33:17;100847.44;;;8.10
85122;BMP280;75480;52.260;20.916;2024-02-16T02:34:48;100849.75;;;8.11
85122;BMP280;75480;52.260;20.916;2024-02-16T02:36:19;100846.53;;;8.13
85122;BMP280;75480;52.260;20.916;2024-02-16T02:37:49;100844.84;;;8.06
85122;BMP280;75480;52.260;20.916;2024-02-16T02:39:20;100840.66;;;8.02
85122;BMP280;75480;52.260;20.916;2024-02-16T02:40:51;100840.19;;;7.94
85122;BMP280;75480;52.260;20.916;2024-02-16T02:42:22;100839.72;;;7.87
85122;BMP280;75480;52.260;20.916;2024-02-16T02:43:53;100840.94;;;7.86
85122;BMP280;75480;52.260;20.916;2024-02-16T02:45:23;100844.59;;;7.92
85122;BMP280;75480;52.260;20.916;2024-02-16T02:46:54;100842.09;;;7.85
85122;BMP280;75480;52.260;20.916;2024-02-16T02:48:25;100844.84;;;7.85
85122;BMP280;75480;52.260;20.916;2024-02-16T02:49:55;100848.81;;;7.83
85122;BMP280;75480;52.260;20.916;2024-02-16T02:51:26;100847.81;;;7.90
85122;BMP280;75480;52.260;20.916;2024-02-16T02:52:57;100852.06;;;7.91
85122;BMP280;75480;52.260;20.916;2024-02-16T02:54:28;100852.97;;;7.88
85122;BMP280;75480;52.260;20.916;2024-02-16T02:55:58;100847.94;;;7.87
85122;BMP280;75480;52.260;20.916;2024-02-16T02:57:29;100849.16;;;7.86
85122;BMP280;75480;52.260;20.916;2024-02-16T02:59:00;100858.47;;;7.88
85122;BMP280;75480;52.260;20.916;2024-02-16T03:00:30;100851.13;;;7.85
85122;BMP280;75480;52.260;20.916;2024-02-16T03:02:01;100847.94;;;7.87
85122;BMP280;75480;52.260;20.916;2024-02-16T03:03:32;100855.72;;;7.88
85122;BMP280;75480;52.260;20.916;2024-02-16T03:05:05;100847.34;;;7.92
85122;BMP280;75480;52.260;20.916;2024-02-16T03:06:37;100854.34;;;7.93
85122;BMP280;75480;52.260;20.916;2024-02-16T03:08:08;100864.56;;;7.92
85122;BMP280;75480;52.260;20.916;2024-02-16T03:09:40;100857.84;;;7.93
85122;BMP280;75480;52.260;20.916;2024-02-16T03:11:12;100854.81;;;7.91
85122;BMP280;75480;52.260;20.916;2024-02-16T03:12:43;100867.03;;;7.90
85122;BMP280;75480;52.260;20.916;2024-02-16T03:14:16;100857.19;;;7.80
85122;BMP280;75480;52.260;20.916;2024-02-16T03:15:47;100864.84;;;7.85
85122;BMP280;75480;52.260;20.916;2024-02-16T03:17:18;100858.56;;;7.85
85122;BMP280;75480;52.260;20.916;2024-02-16T03:18:49;100861.94;;;7.79
85122;BMP280;75480;52.260;20.916;2024-02-16T03:20:20;100858.25;;;7.82
85122;BMP280;75480;52.260;20.916;2024-02-16T03:21:51;100866.19;;;7.80
85122;BMP280;75480;52.260;20.916;2024-02-16T03:23:22;100858.22;;;7.73
85122;BMP280;75480;52.260;20.916;2024-02-16T03:24:53;100854.06;;;7.69
85122;BMP280;75480;52.260;20.916;2024-02-16T03:26:24;100853.63;;;7.70
85122;BMP280;75480;52.260;20.916;2024-02-16T03:27:54;100860.31;;;7.69
85122;BMP280;75480;52.260;20.916;2024-02-16T03:29:26;100856.38;;;7.70
85122;BMP280;75480;52.260;20.916;2024-02-16T03:30:56;100852.34;;;7.62
85122;BMP280;75480;52.260;20.916;2024-02-16T03:32:27;100852.81;;;7.61
85122;BMP280;75480;52.260;20.916;2024-02-16T03:33:58;100851.28;;;7.60
85122;BMP280;75480;52.260;20.916;2024-02-16T03:35:28;100845.53;;;7.45
85122;BMP280;75480;52.260;20.916;2024-02-16T03:36:59;100848.88;;;7.49
85122;BMP280;75480;52.260;20.916;2024-02-16T03:38:30;100849.78;;;7.46
85122;BMP280;75480;52.260;20.916;2024-02-16T03:40:01;100851.63;;;7.49
85122;BMP280;75480;52.260;20.916;2024-02-16T03:41:31;100853.59;;;7.48
85122;BMP280;75480;52.260;20.916;2024-02-16T03:43:02;100849.78;;;7.46
85122;BMP280;75480;52.260;20.916;2024-02-16T03:44:33;100848.72;;;7.43
85122;BMP280;75480;52.260;20.916;2024-02-16T03:46:03;100861.66;;;7.43
85122;BMP280;75480;52.260;20.916;2024-02-16T03:47:34;100853.66;;;7.36
85122;BMP280;75480;52.260;20.916;2024-02-16T03:49:05;100852.13;;;7.35
85122;BMP280;75480;52.260;20.916;2024-02-16T03:50:35;100855.19;;;7.37
85122;BMP280;75480;52.260;20.916;2024-02-16T03:52:06;100855.28;;;7.46
85122;BMP280;75480;52.260;20.916;2024-02-16T03:53:37;100855.19;;;7.37
85122;BMP280;75480;52.260;20.916;2024-02-16T03:55:07;100848.81;;;7.40
85122;BMP280;75480;52.260;20.916;2024-02-16T03:56:38;100855.19;;;7.37
85122;BMP280;75480;52.260;20.916;2024-02-16T03:58:09;100854.75;;;7.38
85122;BMP280;75480;52.260;20.916;2024-02-16T03:59:39;100849.63;;;7.40
85122;BMP280;75480;52.260;20.916;2024-02-16T04:01:10;100855.34;;;7.33
85122;BMP280;75480;52.260;20.916;2024-02-16T04:02:41;100851.19;;;7.29
85122;BMP280;75480;52.260;20.916;2024-02-16T04:04:12;100860.06;;;7.33
85122;BMP280;75480;52.260;20.916;2024-02-16T04:05:43;100862.22;;;7.38
85122;BMP280;75480;52.260;20.916;2024-02-16T04:07:13;100863.13;;;7.35
85122;BMP280;75480;52.260;20.916;2024-02-16T04:08:44;100860.06;;;7.33
85122;BMP280;75480;52.260;20.916;2024-02-16T04:10:15;100855.19;;;7.37
85122;BMP280;75480;52.260;20.916;2024-02-16T04:11:46;100847.22;;;7.30
85122;BMP280;75480;52.260;20.916;2024-02-16T04:13:17;100866.31;;;7.33
85122;BMP280;75480;52.260;20.916;2024-02-16T04:14:48;100856.41;;;7.36
85122;BMP280;75480;52.260;20.916;2024-02-16T04:16:18;100850.75;;;7.30
85122;BMP280;75480;52.260;20.916;2024-02-16T04:17:52;100855.47;;;7.30
85122;BMP280;75480;52.260;20.916;2024-02-16T04:19:25;100862.06;;;7.32
85122;BMP280;75480;52.260;20.916;2024-02-16T04:20:55;100852.63;;;7.33
85122;BMP280;75480;52.260;20.916;2024-02-16T04:22:26;100857.34;;;7.33
85122;BMP280;75480;52.260;20.916;2024-02-16T04:23:57;100853.53;;;7.17
85122;BMP280;75480;52.260;20.916;2024-02-16T04:25:27;100861.31;;;7.19
85122;BMP280;75480;52.260;20.916;2024-02-16T04:26:58;100859.78;;;7.18
85122;BMP280;75480;52.260;20.916;2024-02-16T04:28:29;100847.66;;;7.06
85122;BMP280;75480;52.260;20.916;2024-02-16T04:29:59;100860.16;;;7.07
85122;BMP280;75480;52.260;20.916;2024-02-16T04:31:30;100846.75;;;7.09
85122;BMP280;75480;52.260;20.916;2024-02-16T04:33:01;100859.78;;;7.18
85122;BMP280;75480;52.260;20.916;2024-02-16T04:34:32;100860.34;;;7.13
85122;BMP280;75480;52.260;20.916;2024-02-16T04:36:06;100858.19;;;7.08
85122;BMP280;75480;52.260;20.916;2024-02-16T04:37:38;100856.97;;;7.09
85122;BMP280;75480;52.260;20.916;2024-02-16T04:39:09;100850.72;;;7.08
85122;BMP280;75480;52.260;20.916;2024-02-16T04:40:45;100855.94;;;7.15
85122;BMP280;75480;52.260;20.916;2024-02-16T04:42:16;100852.91;;;7.13
85122;BMP280;75480;52.260;20.916;2024-02-16T04:43:47;100851.56;;;7.18
85122;BMP280;75480;52.260;20.916;2024-02-16T04:45:18;100847.41;;;7.13
85122;BMP280;75480;52.260;20.916;2024-02-16T04:46:50;100843.00;;;7.16
85122;BMP280;75480;52.260;20.916;2024-02-16T04:48:22;100842.56;;;7.17
85122;BMP280;75480;52.260;20.916;2024-02-16T04:49:52;100846.19;;;7.14
85122;BMP280;75480;52.260;20.916;2024-02-16T04:51:24;100843.09;;;7.12
85122;BMP280;75480;52.260;20.916;2024-02-16T04:52:54;100841.28;;;7.09
85122;BMP280;75480;52.260;20.916;2024-02-16T04:54:25;100839.53;;;7.03
85122;BMP280;75480;52.260;20.916;2024-02-16T04:55:55;100840.84;;;6.98
85122;BMP280;75480;52.260;20.916;2024-02-16T04:57:26;100850.16;;;7.01
85122;BMP280;75480;52.260;20.916;2024-02-16T04:58:57;100840.41;;;7.00
85122;BMP280;75480;52.260;20.916;2024-02-16T05:00:27;100835.63;;;6.91
85122;BMP280;75480;52.260;20.916;2024-02-16T05:01:58;100842.38;;;6.99
85122;BMP280;75480;52.260;20.916;2024-02-16T05:03:29;100845.91;;;7.00
85122;BMP280;75480;52.260;20.916;2024-02-16T05:05:00;100854.00;;;7.03
85122;BMP280;75480;52.260;20.916;2024-02-16T05:06:30;100841.94;;;7.01
85122;BMP280;75480;52.260;20.916;2024-02-16T05:08:01;100847.88;;;6.99
85122;BMP280;75480;52.260;20.916;2024-02-16T05:09:32;100849.56;;;6.97
85122;BMP280;75480;52.260;20.916;2024-02-16T05:11:03;100847.59;;;6.97
85122;BMP280;75480;52.260;20.916;2024-02-16T05:12:33;100843.91;;;7.00
85122;BMP280;75480;52.260;20.916;2024-02-16T05:14:05;100841.78;;;6.95
85122;BMP280;75480;52.260;20.916;2024-02-16T05:15:36;100844.84;;;6.97
85122;BMP280;75480;52.260;20.916;2024-02-16T05:17:06;100840.72;;;7.02
85122;BMP280;75480;52.260;20.916;2024-02-16T05:18:37;100839.53;;;7.03
85122;BMP280;75480;52.260;20.916;2024-02-16T05:20:11;100841.44;;;6.93
85122;BMP280;75480;52.260;20.916;2024-02-16T05:21:45;100846.28;;;6.76
85122;BMP280;75480;52.260;20.916;2024-02-16T05:23:16;100835.13;;;6.71
85122;BMP280;75480;52.260;20.916;2024-02-16T05:24:46;100837.72;;;6.74
85122;BMP280;75480;52.260;20.916;2024-02-16T05:26:18;100838.41;;;6.78
85122;BMP280;75480;52.260;20.916;2024-02-16T05:27:49;100831.72;;;6.79
85122;BMP280;75480;52.260;20.916;2024-02-16T05:29:20;100829.06;;;6.88
85122;BMP280;75480;52.260;20.916;2024-02-16T05:30:50;100836.19;;;6.73
85122;BMP280;75480;52.260;20.916;2024-02-16T05:32:21;100842.09;;;6.72
85122;BMP280;75480;52.260;20.916;2024-02-16T05:33:52;100837.09;;;6.70
85122;BMP280;75480;52.260;20.916;2024-02-16T05:35:23;100841.38;;;6.71
85122;BMP280;75480;52.260;20.916;2024-02-16T05:36:58;100845.50;;;6.76
85122;BMP280;75480;52.260;20.916;2024-02-16T05:38:28;100844.66;;;6.79
85122;BMP280;75480;52.260;20.916;2024-02-16T05:40:03;100853.06;;;6.84
85122;BMP280;75480;52.260;20.916;2024-02-16T05:41:49;100846.06;;;6.83
85122;BMP280;75480;52.260;20.916;2024-02-16T05:43:19;100841.47;;;6.80
85122;BMP280;75480;52.260;20.916;2024-02-16T05:44:50;100845.84;;;6.78
85122;BMP280;75480;52.260;20.916;2024-02-16T05:46:21;100851.66;;;6.80
85122;BMP280;75480;52.260;20.916;2024-02-16T05:47:52;100854.72;;;6.82
85122;BMP280;75480;52.260;20.916;2024-02-16T05:49:23;100851.22;;;6.81
85122;BMP280;75480;52.260;20.916;2024-02-16T05:51:00;100859.31;;;6.85
85122;BMP280;75480;52.260;20.916;2024-02-16T05:52:31;100864.78;;;6.85
85122;BMP280;75480;52.260;20.916;2024-02-16T05:54:02;100858.09;;;6.86
85122;BMP280;75480;52.260;20.916;2024-02-16T05:55:33;100861.41;;;6.81
85122;BMP280;75480;52.260;20.916;2024-02-16T05:57:04;100853.41;;;6.74
85122;BMP280;75480;52.260;20.916;2024-02-16T05:58:36;100859.63;;;6.74
85122;BMP280;75480;52.260;20.916;2024-02-16T06:00:09;100863.41;;;6.68
85122;BMP280;75480;52.260;20.916;2024-02-16T06:01:41;100858.88;;;6.74
85122;BMP280;75480;52.260;20.916;2024-02-16T06:03:11;100861.16;;;6.75
85122;BMP280;75480;52.260;20.916;2024-02-16T06:04:42;100860.22;;;6.69
85122;BMP280;75480;52.260;20.916;2024-02-16T06:06:13;100864.34;;;6.74
85122;BMP280;75480;52.260;20.916;2024-02-16T06:07:43;100867.78;;;6.78
85122;BMP280;75480;52.260;20.916;2024-02-16T06:09:14;100870.06;;;6.79
85122;BMP280;75480;52.260;20.916;2024-02-16T06:10:45;100864.34;;;6.74
85122;BMP280;75480;52.260;20.916;2024-02-16T06:12:21;100870.28;;;6.85
85122;BMP280;75480;52.260;20.916;2024-02-16T06:13:52;100875.44;;;6.83
85122;BMP280;75480;52.260;20.916;2024-02-16T06:15:23;100871.47;;;6.84
85122;BMP280;75480;52.260;20.916;2024-02-16T06:16:53;100874.75;;;6.92
85122;BMP280;75480;52.260;20.916;2024-02-16T06:18:24;100880.91;;;6.96
85122;BMP280;75480;52.260;20.916;2024-02-16T06:19:55;100870.88;;;7.02
85122;BMP280;75480;52.260;20.916;2024-02-16T06:21:25;100865.44;;;6.89
85122;BMP280;75480;52.260;20.916;2024-02-16T06:22:56;100878.63;;;6.81
85122;BMP280;75480;52.260;20.916;2024-02-16T06:24:27;100875.19;;;6.90
85122;BMP280;75480;52.260;20.916;2024-02-16T06:25:58;100875.28;;;6.99
85122;BMP280;75480;52.260;20.916;2024-02-16T06:27:29;100878.41;;;7.10
85122;BMP280;75480;52.260;20.916;2024-02-16T06:28:59;100881.16;;;7.10
85122;BMP280;75480;52.260;20.916;2024-02-16T06:30:30;100889.19;;;7.17
85122;BMP280;75480;52.260;20.916;2024-02-16T06:32:01;100889.25;;;7.27
85122;BMP280;75480;52.260;20.916;2024-02-16T06:33:32;100893.09;;;7.29
85122;BMP280;75480;52.260;20.916;2024-02-16T06:35:03;100896.59;;;7.30
85122;BMP280;75480;52.260;20.916;2024-02-16T06:36:34;100896.66;;;7.39
85122;BMP280;75480;52.260;20.916;2024-02-16T06:38:04;100894.69;;;7.39
85122;BMP280;75480;52.260;20.916;2024-02-16T06:39:35;100902.13;;;7.52
85122;BMP280;75480;52.260;20.916;2024-02-16T06:41:06;100902.06;;;7.64
85122;BMP280;75480;52.260;20.916;2024-02-16T06:42:37;100899.69;;;7.75
85122;BMP280;75480;52.260;20.916;2024-02-16T06:44:08;100902.41;;;7.88
85122;BMP280;75480;52.260;20.916;2024-02-16T06:45:39;100910.59;;;8.10
85122;BMP280;75480;52.260;20.916;2024-02-16T06:47:10;100894.94;;;8.20
85122;BMP280;75480;52.260;20.916;2024-02-16T06:48:40;100905.53;;;8.39
85122;BMP280;75480;52.260;20.916;2024-02-16T06:50:11;100907.41;;;8.42
85122;BMP280;75480;52.260;20.916;2024-02-16T06:51:42;100900.00;;;8.61
85122;BMP280;75480;52.260;20.916;2024-02-16T06:53:12;100911.31;;;8.72
85122;BMP280;75480;52.260;20.916;2024-02-16T06:54:43;100905.56;;;8.49
85122;BMP280;75480;52.260;20.916;2024-02-16T06:56:14;100900.03;;;8.39
85122;BMP280;75480;52.260;20.916;2024-02-16T06:57:44;100903.91;;;8.42
85122;BMP280;75480;52.260;20.916;2024-02-16T06:59:15;100904.94;;;8.44
85122;BMP280;75480;52.260;20.916;2024-02-16T07:00:46;100902.78;;;8.39
85122;BMP280;75480;52.260;20.916;2024-02-16T07:02:16;100900.19;;;8.36
85122;BMP280;75480;52.260;20.916;2024-02-16T07:03:48;100901.44;;;8.44
85122;BMP280;75480;52.260;20.916;2024-02-16T07:05:28;100902.63;;;8.34
85122;BMP280;75480;52.260;20.916;2024-02-16T07:06:58;100900.94;;;8.36
85122;BMP280;75480;52.260;20.916;2024-02-16T07:08:29;100901.59;;;8.40
85122;BMP280;75480;52.260;20.916;2024-02-16T07:10:00;100899.50;;;8.54
85122;BMP280;75480;52.260;20.916;2024-02-16T07:11:31;100903.97;;;8.69
85122;BMP280;75480;52.260;20.916;2024-02-16T07:13:01;100898.38;;;8.82
85122;BMP280;75480;52.260;20.916;2024-02-16T07:14:32;100896.66;;;8.85
85122;BMP280;75480;52.260;20.916;2024-02-16T07:16:03;100899.13;;;8.73
85122;BMP280;75480;52.260;20.916;2024-02-16T07:17:35;100906.63;;;8.82
85122;BMP280;75480;52.260;20.916;2024-02-16T07:19:07;100899.31;;;9.06
85122;BMP280;75480;52.260;20.916;2024-02-16T07:20:37;100912.47;;;9.57
85122;BMP280;75480;52.260;20.916;2024-02-16T07:22:09;100918.53;;;9.89
85122;BMP280;75480;52.260;20.916;2024-02-16T07:23:40;100915.59;;;10.11
85122;BMP280;75480;52.260;20.916;2024-02-16T07:25:10;100915.63;;;10.44
85122;BMP280;75480;52.260;20.916;2024-02-16T07:26:43;100914.91;;;10.58
85122;BMP280;75480;52.260;20.916;2024-02-16T07:28:13;100910.97;;;11.21
85122;BMP280;75480;52.260;20.916;2024-02-16T07:29:44;100917.75;;;11.35
85122;BMP280;75480;52.260;20.916;2024-02-16T07:31:14;100914.41;;;11.31
85122;BMP280;75480;52.260;20.916;2024-02-16T07:32:49;100919.22;;;10.83
85122;BMP280;75480;52.260;20.916;2024-02-16T07:34:23;100922.75;;;11.22
85122;BMP280;75480;52.260;20.916;2024-02-16T07:35:54;100914.63;;;10.80
85122;BMP280;75480;52.260;20.916;2024-02-16T07:37:25;100919.50;;;10.61
85122;BMP280;75480;52.260;20.916;2024-02-16T07:38:55;100925.38;;;11.25
85122;BMP280;75480;52.260;20.916;2024-02-16T07:40:26;100923.34;;;11.26
85122;BMP280;75480;52.260;20.916;2024-02-16T07:41:57;100927.66;;;11.56
85122;BMP280;75480;52.260;20.916;2024-02-16T07:43:27;100920.28;;;11.09
85122;BMP280;75480;52.260;20.916;2024-02-16T07:44:58;100924.44;;;10.81
85122;BMP280;75480;52.260;20.916;2024-02-16T07:46:29;100918.63;;;10.79
85122;BMP280;75480;52.260;20.916;2024-02-16T07:47:59;100926.97;;;10.69
85122;BMP280;75480;52.260;20.916;2024-02-16T07:49:38;100932.41;;;10.46
85122;BMP280;75480;52.260;20.916;2024-02-16T07:51:08;100925.38;;;10.12
85122;BMP280;75480;52.260;20.916;2024-02-16T07:52:39;100925.91;;;9.73
85122;BMP280;75480;52.260;20.916;2024-02-16T07:54:10;100921.28;;;9.98
85122;BMP280;75480;52.260;20.916;2024-02-16T07:55:41;100929.47;;;10.58
85122;BMP280;75480;52.260;20.916;2024-02-16T07:57:11;100924.38;;;10.66
85122;BMP280;75480;52.260;20.916;2024-02-16T07:58:42;100926.59;;;10.77
85122;BMP280;75480;52.260;20.916;2024-02-16T08:00:14;100920.44;;;11.05
85122;BMP280;75480;52.260;20.916;2024-02-16T08:01:46;100929.50;;;11.74
85122;BMP280;75480;52.260;20.916;2024-02-16T08:03:17;100917.59;;;11.68
85122;BMP280;75480;52.260;20.916;2024-02-16T08:04:48;100924.50;;;11.49
85122;BMP280;75480;52.260;20.916;2024-02-16T08:06:25;100920.19;;;10.94
85122;BMP280;75480;52.260;20.916;2024-02-16T08:07:55;100919.88;;;10.78
85122;BMP280;75480;52.260;20.916;2024-02-16T08:09:27;100915.56;;;10.53
85122;BMP280;75480;52.260;20.916;2024-02-16T08:10:57;100918.38;;;10.44
85122;BMP280;75480;52.260;20.916;2024-02-16T08:12:28;100927.66;;;10.46
85122;BMP280;75480;52.260;20.916;2024-02-16T08:14:01;100924.31;;;10.75
85122;BMP280;75480;52.260;20.916;2024-02-16T08:15:32;100928.59;;;11.38
85122;BMP280;75480;52.260;20.916;2024-02-16T08:17:03;100931.78;;;11.76
85122;BMP280;75480;52.260;20.916;2024-02-16T08:18:34;100924.91;;;11.56
85122;BMP280;75480;52.260;20.916;2024-02-16T08:20:08;100926.81;;;12.09
85122;BMP280;75480;52.260;20.916;2024-02-16T08:21:40;100924.13;;;12.50
85122;BMP280;75480;52.260;20.916;2024-02-16T08:23:10;100920.97;;;12.77
85122;BMP280;75480;52.260;20.916;2024-02-16T08:24:42;100910.00;;;12.62
85122;BMP280;75480;52.260;20.916;2024-02-16T08:26:16;100906.63;;;12.38
85122;BMP280;75480;52.260;20.916;2024-02-16T08:27:48;100910.47;;;11.61
85122;BMP280;75480;52.260;20.916;2024-02-16T08:29:19;100908.25;;;11.65
85122;BMP280;75480;52.260;20.916;2024-02-16T08:30:50;100914.16;;;11.73
85122;BMP280;75480;52.260;20.916;2024-02-16T08:32:21;100913.38;;;12.02
85122;BMP280;75480;52.260;20.916;2024-02-16T08:33:52;100919.66;;;12.52
85122;BMP280;75480;52.260;20.916;2024-02-16T08:35:22;100902.66;;;12.80
85122;BMP280;75480;52.260;20.916;2024-02-16T08:36:53;100901.56;;;12.71